Montevideo, MN (56265)

11:15 AM CDT op 23 juli 2014 (GMT -0500)
Near Chinhinta Park (KMNMONTE4) Hoogte 1024 ft | 44.94 °N, 95.72 °W | Change Station

Current weather conditions updated 3 seconds ago

Clear
Helder
76.0 °F
Voelt als 78 °F
N
2.0
Wind Variabel Wind van noord
Gusts 5.0 mijl/u

Er wordt verwacht dat de temperatuur vandaag bijna hetzelfde is als gisteren.

Vandaag
Hoog -- | Laag -- °F
--% Kans op neerslag
Gisteren
Hoog -- | Laag -- °F
Precip. -- inches
5:58 AM 8:59 PM
Afnemende halvemaan, 10% visible
Druk 30.29 inches
Zicht 10.0 mijlen
Wolken Helder
Warmteindex 78 °F
Dauwpunt 60 °F
Vochtigheid 57%
Neerslag 0.00 inches
Dikte sneeuw Niet beschikbaar.
UV 7 van de 12
Pollen 6.00 van de 12
Luchtkwaliteit Niet beschikbaar.
Flu Activity Niet beschikbaar.
METAR KMVE 231554Z AUTO 10005KT 10SM CLR 26/14 A3029 RMK AO2

More Conditions Fewer Conditions

Druk 30.29 inches
Zicht 10.0 mijlen
Wolken Helder
Warmteindex 78 °F
Dauwpunt 60 °F
Vochtigheid 57%
Neerslag 0.00 inches
Dikte sneeuw Niet beschikbaar.
UV 7 van de 12
Pollen 6.00 van de 12
Luchtkwaliteit Niet beschikbaar.
Flu Activity Niet beschikbaar.
METAR KMVE 231554Z AUTO 10005KT 10SM CLR 26/14 A3029 RMK AO2

More Conditions Fewer Conditions

10-Day Weather Forecast

Almanac

Astronomie

Jul. 23, 2014 Opkomst Ondergang
Werkelijke tijd 5:58 AM CDT 8:59 PM CDT
Burgerlijke schemering 5:23 AM CDT 9:34 PM CDT
Nautische schemering 4:38 AM CDT 10:18 PM CDT
Astronomische schemering 3:45 AM CDT 11:11 PM CDT
Maan 3:19 AM CDT 6:28 PM CDT
Golflengte van het zichtbare licht 16h 10m
Daglengte
15h 00m
Tomorrow will be 2m 4s shorter.
Afnemende halvemaan, 10% of the Moon is Illuminated
Vandaag
Afnemende halvemaan
jul 26
Nieuw
aug 3
Eerste kwartier
aug 10
Volle maan
aug 17
Laatste kwartier

Extremen vandaag

State Highs State Lows

Community

WunderPhotos

Upload Photos

1,736,660 foto’s ge-upload!

Nearby

Dikte sneeuw

Station Depth Geometrische hoogte
Er is geen verse sneeuw gerapporteerd.

Aardbevingen

Stad Distance Mag. Time & Date
No recent earthquake activity has been reported nearby.
Minimum magnitude displayed is 2.5.

Watertemperatuur langs de kust

Plaats Temperatuur
Geen meldingen van stations

Nabije weerstations

Locatie station Temp. Warmteindex Dauwpunt Vochtigheid Wind Precip. Hoogte Geactualiseerd Type
Near Chinhinta Park, Montevideo, MN 76.0 °F 78 °F 60 °F 57% noord  op  2.0 mijl/u 0.00 inches / hr 1024 ft 11:15 AM CDT Rapid Fire
Near Windom Park, Montevideo, MN 78.1 °F 80 °F 64 °F 62% WNW  op  0.0 mijl/u 0.00 inches / hr 1004 ft 11:15 AM CDT Rapid Fire
Northwest Montevideo, Montevideo, MN 76.3 °F 78 °F 59 °F 55% noord  op  1.1 mijl/u - / hr 1043 ft 11:09 AM CDT Normaal
SW of Prinsburg, Prinsburg, MN 76.2 °F 78 °F 59 °F 56% NNO  op  3.0 mijl/u 0.00 inches / hr 1071 ft 11:15 AM CDT Normaal

Show More Stations Show Fewer Stations